Time;durP1;ratioP1;P1;durP2;ratioP2;P2;SDS_P1;SDS_P2;PMS_P1;PMS_P2;Temp;Humidity;BMP_temperature;BMP_pressure;BME280_temperature;BME280_humidity;BME280_pressure;Samples;Min_cycle;Max_cycle;Signal;HPM_P1;HPM_P2
2022/09/24 00:02:21;;;;;;;20.20;18.10;;;16.80;99.90;;;17.20;87.55;101081.56;4838727;29;20050;-65
2022/09/24 00:04:50;;;;;;;18.10;16.20;;;16.80;99.90;;;17.17;87.26;101083.41;4824853;29;20050;-65
2022/09/24 00:07:18;;;;;;;17.65;15.85;;;16.80;99.90;;;17.23;87.25;101085.03;4824815;29;20054;-65
2022/09/24 00:09:47;;;;;;;18.50;16.60;;;16.80;99.90;;;17.19;87.10;101083.38;4824430;29;20054;-66
2022/09/24 00:12:17;;;;;;;18.00;16.10;;;16.80;99.90;;;17.14;87.21;101078.16;4824470;29;20128;-65
2022/09/24 00:14:45;;;;;;;18.88;16.88;;;16.70;99.90;;;17.18;87.12;101078.94;4824513;29;20413;-65
2022/09/24 00:17:14;;;;;;;18.23;16.23;;;16.70;99.90;;;17.24;87.02;101085.91;4824407;29;20050;-66
2022/09/24 00:19:43;;;;;;;18.13;16.33;;;16.80;99.90;;;17.24;87.03;101077.91;4824451;29;20157;-66
2022/09/24 00:22:11;;;;;;;18.52;16.63;;;16.80;99.90;;;17.29;86.87;101081.31;4824546;29;20493;-66
2022/09/24 00:27:27;;;;;;;18.50;16.50;;;16.90;99.90;;;17.34;86.55;101076.72;4824597;29;20101;-65
2022/09/24 00:29:56;;;;;;;17.52;15.70;;;16.90;99.90;;;17.32;86.30;101081.25;4838470;29;20050;-65
2022/09/24 00:32:25;;;;;;;17.30;15.55;;;16.90;99.90;;;17.09;86.02;101037.31;4824465;29;20069;-66
2022/09/24 00:34:53;;;;;;;18.25;15.85;;;17.00;99.90;;;17.30;86.10;101072.38;4824728;29;20058;-67
2022/09/24 00:37:21;;;;;;;19.00;17.00;;;16.90;99.90;;;17.33;86.03;101074.94;4824470;29;20042;-65
2022/09/24 00:39:49;;;;;;;17.58;15.68;;;16.90;99.90;;;17.32;85.83;101075.88;4838326;29;20078;-66
2022/09/24 00:42:19;;;;;;;18.95;16.98;;;16.90;99.90;;;17.22;85.79;101056.56;4838290;29;20042;-66
2022/09/24 00:44:56;;;;;;;17.25;15.45;;;16.90;99.90;;;17.32;85.48;101066.09;4824391;29;20050;-66
2022/09/24 00:47:40;;;;;;;17.88;15.85;;;16.90;99.90;;;17.42;85.42;101077.38;4824403;29;20126;-65
2022/09/24 00:50:17;;;;;;;18.27;16.38;;;17.00;99.90;;;17.27;85.39;101051.94;4824065;29;20061;-65
2022/09/24 00:52:53;;;;;;;19.67;16.00;;;17.00;99.90;;;17.39;85.35;101069.44;4824612;29;20060;-66
2022/09/24 00:55:23;;;;;;;17.95;16.02;;;17.00;99.90;;;17.38;85.37;101071.22;4824378;29;20054;-66
2022/09/24 00:57:56;;;;;;;19.42;16.45;;;17.00;99.90;;;17.38;85.23;101057.00;4824810;29;20413;-66
2022/09/24 01:00:26;;;;;;;18.58;15.23;;;17.00;99.90;;;17.38;85.13;101057.00;4841805;29;20046;-65
2022/09/24 01:03:01;;;;;;;18.40;16.50;;;17.00;99.90;;;17.42;85.06;101066.69;4842071;29;20058;-65
2022/09/24 01:05:30;;;;;;;18.38;16.20;;;17.00;99.90;;;17.41;84.94;101063.13;4827653;29;20126;-65
2022/09/24 01:07:59;;;;;;;17.25;15.50;;;17.00;99.90;;;17.46;84.96;101057.66;4827349;29;20073;-66
2022/09/24 01:10:47;;;;;;;17.88;15.98;;;17.10;99.90;;;17.51;84.96;101053.06;4827159;29;20119;-66
2022/09/24 01:13:35;;;;;;;18.05;15.27;;;17.10;99.90;;;17.55;84.53;101058.28;4827188;29;20051;-68
2022/09/24 01:16:20;;;;;;;17.77;15.98;;;17.20;99.90;;;17.59;84.60;101053.72;4827494;29;20043;-65
2022/09/24 01:18:56;;;;;;;18.73;16.73;;;17.20;99.90;;;17.44;84.73;101064.84;4827172;29;20058;-66
2022/09/24 01:21:35;;;;;;;17.83;15.95;;;17.10;99.90;;;17.50;84.81;101056.69;4827111;29;20137;-66
2022/09/24 01:24:47;;;;;;;18.23;15.95;;;17.10;99.90;;;17.43;84.92;101047.91;4827020;29;20068;-65
2022/09/24 01:27:20;;;;;;;18.30;16.40;;;17.10;99.90;;;17.29;85.11;101022.47;4840253;29;20080;-67
2022/09/24 01:30:04;;;;;;;18.45;16.27;;;17.10;99.90;;;17.41;85.23;101043.53;4826886;29;20042;-66
2022/09/24 01:32:39;;;;;;;18.58;16.67;;;17.00;99.90;;;17.39;85.15;101035.56;4826123;29;20067;-66
2022/09/24 01:35:14;;;;;;;19.55;15.98;;;17.00;99.90;;;16.91;84.94;100946.09;4825854;29;20060;-65
2022/09/24 01:37:48;;;;;;;17.67;15.85;;;17.00;99.90;;;17.20;85.09;101010.28;4825807;29;20042;-68
2022/09/24 01:40:18;;;;;;;17.92;16.02;;;17.00;99.90;;;17.39;85.27;101026.66;4825839;29;20102;-66
2022/09/24 01:42:48;;;;;;;17.70;15.50;;;17.00;99.90;;;17.40;85.13;101023.06;4825773;29;20054;-66
2022/09/24 01:45:18;;;;;;;17.75;15.93;;;17.00;99.90;;;17.42;85.18;101024.75;4825974;29;20046;-65
2022/09/24 01:47:47;;;;;;;;;;;17.00;99.90;;;17.25;85.06;100997.63;4826151;29;20046;-66
2022/09/24 01:50:19;;;;;;;19.83;17.25;;;17.10;99.90;;;17.16;85.59;101021.97;4825822;29;20355;-66
2022/09/24 01:52:53;;;;;;;19.38;17.20;;;16.90;99.90;;;17.25;85.82;101012.84;4825897;29;20042;-66
2022/09/24 01:55:27;;;;;;;22.45;19.20;;;16.90;99.90;;;16.84;87.33;101009.50;4825897;29;20416;-66
2022/09/24 01:58:01;;;;;;;23.25;20.33;;;16.70;99.90;;;16.69;88.60;101009.94;4825507;29;20061;-66
2022/09/24 02:00:31;;;;;;;24.40;20.75;;;16.50;99.90;;;16.73;88.78;101006.28;4825633;29;20085;-65
2022/09/24 02:03:11;;;;;;;22.95;20.40;;;16.50;99.90;;;16.80;88.82;101002.50;4825800;29;20506;-66
2022/09/24 02:05:46;;;;;;;23.42;21.00;;;16.50;99.90;;;16.68;89.04;101002.88;4825450;29;20054;-66
2022/09/24 02:08:19;;;;;;;26.38;21.70;;;16.40;99.90;;;16.69;88.98;100991.25;4825743;29;20046;-66
2022/09/24 02:10:54;;;;;;;26.55;22.42;;;16.40;99.90;;;16.69;89.37;100991.25;4825205;29;20043;-66
2022/09/24 02:13:26;;;;;;;22.55;20.15;;;16.40;99.90;;;16.71;89.41;100992.09;4825482;29;20057;-66
2022/09/24 02:16:00;;;;;;;24.92;22.23;;;16.40;99.90;;;16.66;89.33;100987.78;4825594;29;20050;-66
2022/09/24 02:18:33;;;;;;;25.65;21.90;;;16.40;99.90;;;16.62;89.69;100988.78;4839640;29;20433;-66
2022/09/24 02:21:13;;;;;;;28.58;22.55;;;16.30;99.90;;;16.63;89.69;100983.41;4825286;29;20476;-66
2022/09/24 02:23:47;;;;;;;26.55;22.23;;;16.30;99.90;;;15.96;89.75;100869.53;4825330;29;20129;-66
2022/09/24 02:26:15;;;;;;;30.33;23.55;;;16.30;99.90;;;16.56;89.95;100981.81;4825538;29;20057;-66
2022/09/24 02:28:44;;;;;;;22.95;20.58;;;16.30;99.90;;;16.57;90.33;100978.22;4825438;29;20085;-68
2022/09/24 02:31:19;;;;;;;24.23;21.60;;;16.30;99.90;;;16.02;90.09;100876.47;4786347;29;1104716;-70
2022/09/24 02:36:38;;;;;;;24.63;22.02;;;16.40;99.90;;;16.56;90.58;100986.28;4825875;29;20046;-65
2022/09/24 02:39:06;;;;;;;24.90;22.20;;;16.20;99.90;;;16.61;90.55;100982.56;4826472;29;20057;-66
2022/09/24 02:41:36;;;;;;;25.67;22.98;;;16.30;99.90;;;16.59;90.17;100976.38;4826060;29;20053;-66
2022/09/24 02:44:04;;;;;;;27.13;24.10;;;16.30;99.90;;;16.63;90.13;100983.41;4826024;29;20050;-66
2022/09/24 02:46:34;;;;;;;29.42;24.65;;;16.40;99.90;;;16.66;90.03;100980.66;4826014;29;20098;-66
2022/09/24 02:49:02;;;;;;;28.17;24.65;;;16.40;99.90;;;16.63;90.38;100986.06;4839887;29;20054;-66
2022/09/24 02:51:31;;;;;;;26.60;23.17;;;16.30;99.90;;;16.73;90.46;100992.91;4839900;29;20378;-66
2022/09/24 02:54:00;;;;;;;27.40;22.95;;;16.40;99.90;;;16.75;90.54;100988.41;4839852;29;20054;-66
2022/09/24 02:56:28;;;;;;;27.75;23.85;;;16.40;99.90;;;16.38;91.82;100990.28;4825533;29;20069;-66
2022/09/24 02:58:57;;;;;;;26.92;24.15;;;16.10;99.90;;;16.50;92.37;100984.66;4825553;29;20478;-66
2022/09/24 03:01:25;;;;;;;28.77;25.52;;;16.10;99.90;;;16.50;92.41;100968.63;4839735;29;20053;-65
2022/09/24 03:03:55;;;;;;;29.00;24.73;;;16.10;99.90;;;16.38;92.26;100986.72;4825696;29;20438;-66
2022/09/24 03:06:24;;;;;;;29.52;24.42;;;16.00;99.90;;;16.38;93.20;100987.59;4825435;29;20062;-66
2022/09/24 03:08:53;;;;;;;27.83;24.83;;;15.90;99.90;;;16.37;93.23;100985.88;4825686;29;20057;-66
2022/09/24 03:11:23;;;;;;;28.25;24.90;;;15.90;99.90;;;16.40;92.82;100985.78;4825340;29;20461;-66
2022/09/24 03:13:51;;;;;;;31.83;27.15;;;16.00;99.90;;;16.41;92.86;100968.84;4825262;29;20051;-66
2022/09/24 03:16:20;;;;;;;32.30;28.05;;;16.00;99.90;;;16.38;92.95;100989.38;4825231;29;20054;-66
2022/09/24 03:18:49;;;;;;;33.40;27.70;;;16.00;99.90;;;16.35;93.27;100976.13;4825264;29;20042;-66
2022/09/24 03:21:21;;;;;;;35.55;30.52;;;16.00;99.90;;;16.28;93.66;100981.63;4824894;29;20057;-67
2022/09/24 03:23:50;;;;;;;32.75;28.35;;;16.00;99.90;;;16.32;93.77;100979.75;4825429;29;20413;-66
2022/09/24 03:26:18;;;;;;;38.45;31.50;;;16.00;99.90;;;16.37;93.95;100974.31;4825179;29;20095;-66
2022/09/24 03:28:46;;;;;;;33.42;28.92;;;16.00;99.90;;;16.17;93.88;100942.78;4825075;29;20129;-66
2022/09/24 03:31:14;;;;;;;40.13;32.00;;;16.10;99.90;;;16.38;94.10;100965.34;4824776;29;20057;-66
2022/09/24 03:33:45;;;;;;;36.50;30.73;;;16.10;99.90;;;16.46;93.92;100968.72;4825277;29;20050;-65
2022/09/24 03:36:16;;;;;;;37.78;30.55;;;16.10;99.90;;;16.55;93.67;100964.03;4825060;29;20517;-67
2022/09/24 03:38:48;;;;;;;34.28;29.67;;;16.20;99.90;;;16.60;93.60;100980.81;4824977;29;20089;-66
2022/09/24 03:41:17;;;;;;;36.30;30.45;;;16.30;99.90;;;16.47;93.34;100943.78;4824948;29;20409;-66
2022/09/24 03:43:45;;;;;;;34.90;30.27;;;16.30;99.90;;;16.51;93.33;100946.34;4824827;29;20061;-66
2022/09/24 03:46:15;;;;;;;35.85;30.67;;;16.30;99.90;;;16.69;93.24;100969.00;4824931;29;20500;-67
2022/09/24 03:48:46;;;;;;;34.33;29.92;;;16.30;99.90;;;16.77;92.84;100973.22;4825427;29;20146;-67
2022/09/24 03:51:17;;;;;;;33.33;29.70;;;16.40;99.90;;;16.86;92.56;100980.09;4824789;29;20143;-66
2022/09/24 03:53:48;;;;;;;36.47;30.45;;;16.50;99.90;;;16.85;92.32;100981.91;4824837;29;20046;-67
2022/09/24 03:56:16;;;;;;;39.55;32.20;;;16.60;99.90;;;16.93;92.09;100982.56;4824827;29;20134;-67
2022/09/24 03:58:46;;;;;;;35.88;29.80;;;16.60;99.90;;;17.02;91.68;100976.94;4824922;29;20057;-66
2022/09/24 04:01:20;;;;;;;37.47;32.15;;;16.60;99.90;;;17.07;91.46;100976.81;4824694;29;20058;-66
2022/09/24 04:03:50;;;;;;;38.00;31.98;;;16.70;99.90;;;17.11;91.21;100973.97;4824686;29;20051;-66
2022/09/24 04:06:18;;;;;;;40.83;31.88;;;16.70;99.90;;;17.03;90.88;100954.63;4824868;29;20050;-66
2022/09/24 04:08:54;;;;;;;39.55;32.25;;;16.80;99.90;;;17.20;90.74;100974.63;4824891;29;20050;-66
2022/09/24 04:11:23;;;;;;;43.28;33.92;;;16.80;99.90;;;17.19;90.50;100972.91;4838548;29;20047;-66
2022/09/24 04:13:51;;;;;;;41.30;33.92;;;16.80;99.90;;;17.22;90.28;100967.44;4824691;29;20057;-67
2022/09/24 04:16:20;;;;;;;46.55;34.42;;;16.90;99.90;;;17.27;90.28;100974.41;4824462;29;20056;-66
2022/09/24 04:18:49;;;;;;;41.55;34.13;;;16.80;99.90;;;17.25;89.85;100975.41;4824969;29;20062;-66
2022/09/24 04:21:18;;;;;;;47.22;36.38;;;16.90;99.90;;;17.30;89.83;100979.69;4824689;29;20053;-67
2022/09/24 04:23:46;;;;;;;42.88;34.50;;;16.90;99.90;;;17.41;89.50;100984.69;4824577;29;20402;-66
2022/09/24 04:26:16;;;;;;;42.63;34.97;;;17.00;99.90;;;17.42;89.23;100981.09;4824858;29;20054;-66
2022/09/24 04:28:44;;;;;;;42.37;34.07;;;17.00;99.90;;;17.46;89.28;100972.06;4824571;29;20058;-67
2022/09/24 04:31:12;;;;;;;40.83;33.20;;;17.10;99.90;;;17.53;89.10;100981.69;4838110;29;20066;-67
2022/09/24 04:33:41;;;;;;;43.45;34.28;;;17.10;99.90;;;17.55;89.02;100979.84;4837484;29;20086;-66
2022/09/24 04:36:09;;;;;;;40.42;33.15;;;17.20;99.90;;;17.57;88.95;100983.34;4824238;29;20508;-66
2022/09/24 04:38:37;;;;;;;41.63;34.30;;;17.20;99.90;;;17.55;89.05;100967.34;4824162;29;20057;-66
2022/09/24 04:41:07;;;;;;;40.90;33.15;;;17.30;99.90;;;17.71;88.53;100994.50;4824434;29;20398;-66
2022/09/24 04:43:37;;;;;;;43.15;34.58;;;17.30;99.90;;;17.74;88.29;100995.25;4824088;29;20527;-66
2022/09/24 04:46:08;;;;;;;46.03;37.20;;;17.40;99.90;;;17.65;88.62;101000.03;4824061;29;20047;-66
2022/09/24 04:48:37;;;;;;;53.85;38.75;;;17.30;99.90;;;17.40;89.19;100994.50;4824372;29;20058;-66
2022/09/24 04:51:06;;;;;;;54.42;38.35;;;17.10;99.90;;;17.37;90.34;100991.94;4823929;29;20070;-66
2022/09/24 04:53:36;;;;;;;53.20;38.85;;;17.00;99.90;;;17.49;89.69;100996.06;4824358;29;20057;-66
2022/09/24 04:56:04;;;;;;;53.10;39.08;;;17.10;99.90;;;17.54;89.43;100996.78;4824232;29;20107;-67
2022/09/24 04:58:33;;;;;;;46.30;33.33;;;17.20;99.90;;;17.58;89.01;100998.44;4824407;29;20464;-65
2022/09/24 05:01:03;;;;;;;41.08;29.88;;;17.20;99.90;;;17.61;88.84;100993.03;4823959;29;20050;-65
2022/09/24 05:03:32;;;;;;;30.08;23.20;;;17.30;99.90;;;17.43;88.99;100980.16;4824217;29;20050;-65
2022/09/24 05:06:01;;;;;;;32.75;23.00;;;17.20;99.90;;;17.40;88.86;100958.88;4823830;29;20038;-66
2022/09/24 05:08:29;;;;;;;26.20;20.73;;;17.20;99.90;;;17.37;89.57;100991.06;4823803;29;20536;-64
2022/09/24 05:10:57;;;;;;;29.77;21.02;;;17.00;99.90;;;17.43;89.52;100989.06;4823682;29;20050;-65
2022/09/24 05:13:26;;;;;;;24.45;19.23;;;17.10;99.90;;;17.44;89.51;100995.31;4823795;29;20050;-66
2022/09/24 05:15:55;;;;;;;23.08;17.60;;;17.10;99.90;;;17.42;89.66;100995.34;4824020;29;20057;-65
2022/09/24 05:18:25;;;;;;;22.42;17.45;;;17.00;99.90;;;17.37;89.67;100986.59;4824245;29;20050;-66
2022/09/24 05:20:55;;;;;;;22.50;17.67;;;17.10;99.90;;;17.45;90.14;100991.69;4824072;29;20054;-64
2022/09/24 05:23:23;;;;;;;17.60;13.40;;;17.10;99.90;;;17.32;89.99;100990.31;4823699;29;20057;-64
2022/09/24 05:28:39;;;;;;;14.88;11.48;;;17.00;99.90;;;17.39;89.91;100992.75;4837823;29;20141;-64
2022/09/24 05:31:07;;;;;;;12.60;10.55;;;17.10;99.90;;;17.40;89.96;100999.00;4823380;29;20046;-64
2022/09/24 05:33:38;;;;;;;13.48;10.52;;;17.10;99.90;;;17.28;89.92;100988.66;4837886;29;20059;-64
2022/09/24 05:36:06;;;;;;;12.35;9.13;;;17.00;99.90;;;17.33;90.15;100998.28;4823565;29;20050;-65
2022/09/24 05:38:35;;;;;;;10.77;8.25;;;17.00;99.90;;;17.36;90.08;100997.34;4823939;29;20412;-65
2022/09/24 05:41:08;;;;;;;9.75;7.57;;;17.00;99.90;;;17.37;90.11;101004.41;4823550;29;20055;-66
2022/09/24 05:43:37;;;;;;;9.63;6.70;;;17.10;99.90;;;17.30;90.10;101003.75;4824063;29;20103;-66
2022/09/24 05:46:06;;;;;;;8.57;5.85;;;17.00;99.90;;;17.29;90.03;101001.09;4826964;29;20057;-65
2022/09/24 05:48:36;;;;;;;10.80;6.18;;;17.00;99.90;;;17.33;89.84;101002.75;4826880;29;20174;-64
2022/09/24 05:51:05;;;;;;;7.85;5.75;;;17.00;99.90;;;17.33;89.47;101008.09;4826596;29;20055;-67
2022/09/24 05:53:34;;;;;;;8.25;5.05;;;17.00;99.90;;;17.28;89.65;101004.69;4826566;29;20133;-64
2022/09/24 05:56:02;;;;;;;8.90;5.13;;;17.00;99.90;;;17.32;89.51;101014.38;4826720;29;20046;-64
2022/09/24 05:58:31;;;;;;;7.95;5.00;;;17.00;99.90;;;17.26;89.42;101011.88;4826396;29;20041;-65
2022/09/24 06:01:00;;;;;;;9.43;4.80;;;17.00;99.90;;;17.21;89.59;101013.84;4826704;29;20370;-64
2022/09/24 06:03:30;;;;;;;8.02;5.20;;;16.90;99.90;;;17.22;89.36;101012.91;4826378;29;20042;-64
2022/09/24 06:06:01;;;;;;;8.70;4.57;;;16.90;99.90;;;17.27;89.02;101018.97;4826403;29;20054;-64
2022/09/24 06:08:31;;;;;;;8.18;4.88;;;16.90;99.90;;;17.29;88.68;101017.13;4826581;29;20057;-65
2022/09/24 06:11:01;;;;;;;10.10;5.00;;;17.00;99.90;;;17.25;88.74;101026.19;4826278;29;20054;-65
2022/09/24 06:13:30;;;;;;;9.48;5.05;;;17.00;99.90;;;17.32;88.46;101022.41;4826352;29;20065;-65
2022/09/24 06:16:01;;;;;;;9.40;5.00;;;17.00;99.90;;;17.27;88.38;101024.31;4826191;29;20042;-64
2022/09/24 06:18:30;;;;;;;8.18;4.90;;;17.00;99.90;;;17.33;88.28;101041.06;4826203;29;20493;-64
2022/09/24 06:21:03;;;;;;;8.95;4.65;;;17.00;99.90;;;17.33;88.29;101042.88;4826088;29;20054;-64
2022/09/24 06:23:32;;;;;;;9.60;5.10;;;17.00;99.90;;;17.39;88.08;101040.00;4826342;29;20058;-65
2022/09/24 06:26:00;;;;;;;9.48;5.40;;;17.10;99.90;;;17.35;87.88;101035.69;4826038;29;20042;-65
2022/09/24 06:28:29;;;;;;;9.48;4.80;;;17.10;99.90;;;17.33;87.96;101037.53;4826201;29;20050;-65
2022/09/24 06:31:01;;;;;;;10.35;4.68;;;17.00;99.90;;;17.33;87.58;101040.19;4839761;29;20057;-65
2022/09/24 06:33:29;;;;;;;11.43;5.07;;;17.00;99.90;;;17.31;87.50;101042.03;4826350;29;20050;-64
2022/09/24 06:36:03;;;;;;;11.20;4.80;;;17.00;99.90;;;17.25;87.93;101053.78;4825705;29;20081;-64
2022/09/24 06:38:31;;;;;;;12.43;4.50;;;17.00;99.90;;;17.36;87.61;101051.69;4825948;29;20070;-64
2022/09/24 06:41:02;;;;;;;7.18;4.20;;;17.00;99.90;;;17.39;87.40;101056.94;4825766;29;20038;-65
2022/09/24 06:43:31;;;;;;;10.95;4.60;;;17.10;99.90;;;17.34;87.46;101053.53;4825854;29;20050;-65
2022/09/24 06:46:00;;;;;;;6.93;4.38;;;17.00;99.90;;;17.38;87.18;101052.50;4826268;29;20042;-65
2022/09/24 06:48:29;;;;;;;9.10;4.45;;;17.10;99.90;;;17.45;86.55;101047.88;4825962;29;20110;-65
2022/09/24 06:50:58;;;;;;;13.52;5.13;;;17.20;99.90;;;17.44;86.40;101062.16;4825622;29;20043;-66
2022/09/24 06:53:28;;;;;;;10.07;4.05;;;17.20;99.90;;;17.46;86.30;101055.84;4839793;29;20050;-65
2022/09/24 06:55:58;;;;;;;12.27;4.77;;;17.20;99.90;;;17.50;86.34;101075.41;4825007;29;20055;-65
2022/09/24 06:58:28;;;;;;;7.97;3.90;;;17.20;99.90;;;17.48;86.00;101062.06;4825614;29;20511;-65
2022/09/24 07:01:01;;;;;;;12.37;4.50;;;17.20;99.90;;;17.47;85.92;101070.09;4825550;29;20133;-65
2022/09/24 07:03:32;;;;;;;16.27;5.55;;;17.20;99.90;;;17.45;86.06;101066.59;4839474;29;20141;-66
2022/09/24 07:06:03;;;;;;;12.55;4.53;;;17.20;99.90;;;17.47;86.24;101067.41;4825561;29;20081;-66
2022/09/24 07:08:33;;;;;;;11.02;4.13;;;17.20;99.90;;;17.56;85.99;101078.75;4825474;29;20057;-66
2022/09/24 07:11:01;;;;;;;14.18;5.18;;;17.30;99.90;;;17.59;85.90;101075.13;4825979;29;20042;-66
2022/09/24 07:13:30;;;;;;;11.05;4.07;;;17.30;99.90;;;17.57;86.03;101071.63;4825298;29;20046;-66
2022/09/24 07:16:00;;;;;;;17.70;5.32;;;17.30;99.90;;;17.56;85.78;101085.88;4839447;29;20477;-66
2022/09/24 07:18:28;;;;;;;11.68;4.50;;;17.30;99.90;;;17.56;85.68;101083.22;4839496;29;20057;-66
2022/09/24 07:20:57;;;;;;;13.60;4.55;;;17.30;99.90;;;17.56;85.75;101085.88;4825227;29;20050;-66
2022/09/24 07:23:26;;;;;;;11.48;4.25;;;17.30;99.90;;;17.57;85.60;101093.00;4825497;29;20077;-66
2022/09/24 07:25:57;;;;;;;13.25;4.43;;;17.20;99.90;;;17.48;85.40;101087.91;4825186;29;20362;-66
2022/09/24 07:28:25;;;;;;;;;;;17.20;99.90;;;17.52;85.52;101093.13;4825306;29;20057;-67
2022/09/24 07:30:58;;;;;;;10.75;4.18;;;17.30;99.90;;;16.98;85.44;101003.78;4825148;29;19925;-67
2022/09/24 07:33:27;;;;;;;16.35;5.05;;;17.20;99.90;;;17.46;85.36;101095.09;4825311;29;20055;-67
2022/09/24 07:35:55;;;;;;;15.20;4.72;;;17.20;99.90;;;17.46;85.45;101092.44;4825116;29;20046;-67
2022/09/24 07:38:23;;;;;;;17.00;4.57;;;17.20;99.90;;;17.51;85.44;101101.22;4839137;29;20148;-68
2022/09/24 07:40:53;;;;;;;9.85;4.05;;;17.20;99.90;;;17.52;85.50;101097.59;4825439;29;20049;-67
2022/09/24 07:43:22;;;;;;;16.40;4.65;;;17.20;99.90;;;17.42;85.52;101098.78;4824947;29;20043;-67
2022/09/24 07:45:54;;;;;;;18.97;4.70;;;17.20;99.90;;;17.41;85.55;101105.03;4825118;29;20136;-67
2022/09/24 07:48:23;;;;;;;15.68;4.50;;;17.20;99.90;;;17.39;85.44;101106.88;4825206;29;20133;-68
2022/09/24 07:50:51;;;;;;;11.57;4.30;;;17.10;99.90;;;17.17;85.65;101074.50;4825291;29;20057;-67
2022/09/24 07:53:20;;;;;;;14.88;4.35;;;17.10;99.90;;;17.27;85.47;101099.19;4824614;29;20481;-67
2022/09/24 07:55:48;;;;;;;14.70;4.47;;;17.10;99.90;;;17.33;85.26;101107.03;4824683;29;20447;-67
2022/09/24 07:58:17;;;;;;;11.43;4.40;;;17.10;99.90;;;17.25;85.23;101138.50;4824901;29;20054;-67
2022/09/24 08:00:46;;;;;;;16.35;4.97;;;17.00;99.90;;;17.24;85.73;101126.03;4824919;29;20054;-67
2022/09/24 08:03:15;;;;;;;16.65;4.97;;;17.00;99.90;;;17.24;85.45;101115.34;4824658;29;20052;-67
2022/09/24 08:05:44;;;;;;;13.65;5.32;;;17.00;99.90;;;17.16;85.36;101107.53;4838777;29;20057;-68
2022/09/24 08:08:13;;;;;;;10.63;4.00;;;17.00;99.90;;;17.23;85.30;101126.97;4824366;29;20046;-68
2022/09/24 08:10:42;;;;;;;13.88;5.07;;;17.00;99.90;;;17.19;85.26;101122.63;4824801;29;20297;-68
2022/09/24 08:13:11;;;;;;;12.68;4.90;;;16.90;99.90;;;17.23;85.13;101124.28;4824410;29;20053;-67
2022/09/24 08:15:39;;;;;;;12.15;4.05;;;16.90;99.90;;;17.27;85.29;101133.94;4824766;29;20042;-69
2022/09/24 08:18:10;;;;;;;16.20;4.40;;;17.00;99.90;;;17.14;85.35;101120.06;4824745;29;20050;-68
2022/09/24 08:20:39;;;;;;;14.93;4.38;;;17.00;99.90;;;17.38;85.24;101135.41;4824441;29;20057;-67
2022/09/24 08:23:09;;;;;;;9.95;3.97;;;17.10;99.90;;;17.13;85.50;101113.81;4824344;29;20054;-67
2022/09/24 08:25:38;;;;;;;;;;;17.10;99.90;;;17.37;85.56;101155.06;4825098;29;20042;-68
2022/09/24 08:28:09;;;;;;;13.95;4.85;;;17.10;99.90;;;17.42;85.54;101152.28;4824599;29;20106;-68
2022/09/24 08:30:38;;;;;;;15.18;5.15;;;17.20;99.90;;;17.42;85.39;101162.97;4824351;29;20137;-67
2022/09/24 08:33:06;;;;;;;12.73;5.20;;;17.20;99.90;;;17.43;85.26;101148.66;4822499;29;20067;-67
2022/09/24 08:35:37;;;;;;;12.77;4.75;;;17.20;99.90;;;17.49;85.24;101153.88;4824240;29;20489;-70
2022/09/24 08:38:06;;;;;;;14.45;4.75;;;17.20;99.90;;;17.52;85.40;101151.09;4824565;29;20047;-68
2022/09/24 08:40:45;;;;;;;12.40;4.50;;;17.20;99.90;;;17.61;85.40;101161.56;4824481;29;20051;-67
2022/09/24 08:43:29;;;;;;;17.30;5.22;;;17.30;99.90;;;17.05;85.49;101075.72;4824461;29;20485;-67
2022/09/24 08:48:53;;;;;;;12.30;4.78;;;17.30;99.90;;;17.59;85.11;101168.75;4824083;29;20043;-67
2022/09/24 08:51:23;;;;;;;16.17;4.47;;;17.30;99.90;;;17.55;85.01;101165.28;4824130;29;20088;-68
2022/09/24 08:53:57;;;;;;;15.13;4.55;;;17.20;99.90;;;17.59;84.86;101171.44;4824260;29;20046;-66
2022/09/24 08:56:30;;;;;;;11.48;3.97;;;17.30;99.90;;;17.60;85.03;101168.69;4824030;29;20060;-65
2022/09/24 08:59:00;;;;;;;13.15;4.60;;;17.30;99.90;;;17.56;85.22;101176.84;4824168;29;20069;-66
2022/09/24 09:01:38;;;;;;;11.48;4.75;;;17.20;99.90;;;17.59;85.03;101182.13;4824266;29;20050;-66
2022/09/24 09:04:23;;;;;;;12.55;4.90;;;17.30;99.90;;;17.01;85.03;101068.72;4823997;29;20386;-65
2022/09/24 09:07:06;;;;;;;15.05;4.80;;;17.30;99.90;;;17.69;85.37;101173.78;4824089;29;20061;-65
2022/09/24 09:09:45;;;;;;;17.52;4.68;;;17.40;99.90;;;17.72;85.05;101179.06;4823851;29;20046;-66
2022/09/24 09:12:18;;;;;;;12.35;4.47;;;17.40;99.90;;;17.73;85.15;101185.31;4823927;29;20057;-66
2022/09/24 09:14:56;;;;;;;11.95;4.40;;;17.40;99.90;;;17.83;84.83;101195.69;4837948;29;20057;-66
2022/09/24 09:17:44;;;;;;;14.43;5.47;;;17.50;99.90;;;17.81;85.18;101184.13;4823678;29;20497;-66
2022/09/24 09:20:19;;;;;;;16.33;5.25;;;17.50;99.90;;;17.78;85.08;101191.38;4825906;29;20089;-65
2022/09/24 09:22:52;;;;;;;14.73;5.28;;;17.50;99.90;;;17.88;84.58;101185.75;4827004;29;20503;-66
2022/09/24 09:25:24;;;;;;;15.07;5.07;;;17.60;99.90;;;17.79;84.63;101193.13;4827267;29;20046;-66
2022/09/24 09:28:00;;;;;;;17.92;4.72;;;17.50;99.90;;;17.80;84.30;101190.44;4827013;29;20133;-66
2022/09/24 09:30:37;;;;;;;15.82;4.72;;;17.50;99.90;;;17.87;84.58;101196.47;4827014;29;20054;-66
2022/09/24 09:33:24;;;;;;;12.73;4.72;;;17.50;99.90;;;17.90;84.41;101199.91;4827090;29;20066;-66
2022/09/24 09:36:02;;;;;;;13.88;4.25;;;17.60;99.90;;;17.85;84.38;101195.63;4827105;29;20054;-65
2022/09/24 09:38:39;;;;;;;16.42;4.00;;;17.60;99.90;;;17.91;84.45;101204.38;4826875;29;20046;-67
2022/09/24 09:41:20;;;;;;;13.13;4.03;;;17.60;99.90;;;17.96;84.32;101202.41;4826845;29;20054;-66
2022/09/24 09:43:49;;;;;;;13.73;4.45;;;17.70;99.90;;;18.03;84.06;101200.44;4826851;29;20050;-65
2022/09/24 09:46:23;;;;;;;13.07;4.93;;;17.70;99.90;;;17.99;83.61;101202.34;4826690;29;20053;-65
2022/09/24 09:48:56;;;;;;;15.48;4.65;;;17.70;99.90;;;18.00;83.22;101196.06;4826718;29;20386;-66
2022/09/24 09:51:27;;;;;;;13.48;4.93;;;17.80;99.90;;;17.89;82.82;101182.13;4826972;29;20060;-66
2022/09/24 09:53:58;;;;;;;14.85;5.45;;;17.80;99.90;;;17.95;82.45;101206.03;4826635;29;20163;-65
2022/09/24 09:56:30;;;;;;;16.27;5.03;;;17.70;99.90;;;17.97;82.04;101208.66;4826779;29;20469;-67
2022/09/24 09:59:17;;;;;;;19.52;4.65;;;17.70;99.90;;;18.02;81.84;101212.09;4826561;29;20130;-66
2022/09/24 10:01:49;;;;;;;16.45;4.85;;;17.70;99.90;;;17.98;81.18;101210.44;4826370;29;20049;-65
2022/09/24 10:04:38;;;;;;;11.98;4.65;;;17.70;99.90;;;18.00;81.17;101209.44;4826349;29;20052;-67
2022/09/24 10:07:09;;;;;;;10.07;4.50;;;17.70;99.90;;;18.02;80.70;101212.09;4826616;29;20062;-68
2022/09/24 10:09:42;;;;;;;11.43;4.65;;;17.70;99.90;;;18.02;80.53;101202.25;4825372;29;20401;-67
2022/09/24 10:12:16;;;;;;;10.82;4.25;;;17.70;99.90;;;18.00;79.56;101198.72;4826897;29;20492;-67
2022/09/24 10:14:45;;;;;;;14.27;4.60;;;17.70;99.90;;;17.90;79.37;101191.03;4826569;29;20504;-67
2022/09/24 10:17:17;;;;;;;10.25;3.92;;;17.70;99.90;;;17.94;78.52;101196.22;4826173;29;20046;-67
2022/09/24 10:19:49;;;;;;;11.30;4.53;;;17.80;99.90;;;17.81;77.63;101210.91;4826132;29;20051;-66
2022/09/24 10:22:23;;;;;;;12.32;4.15;;;17.60;99.90;;;17.87;77.09;101208.06;4826410;29;20129;-68
2022/09/24 10:24:54;;;;;;;13.93;4.88;;;17.60;99.90;;;17.80;76.91;101211.84;4840239;29;20061;-66
2022/09/24 10:27:31;;;;;;;14.07;4.07;;;17.60;99.90;;;17.75;76.64;101207.53;4825985;29;20531;-67
2022/09/24 10:32:57;;;;;;;12.52;4.03;;;17.50;99.90;;;17.15;76.46;101117.34;4825838;29;20055;-66
2022/09/24 10:35:32;;;;;;;13.77;4.43;;;17.50;99.90;;;17.78;76.52;101207.44;4826150;29;20100;-66
2022/09/24 10:38:02;;;;;;;8.60;3.58;;;17.50;99.90;;;17.25;76.61;101138.50;4840263;29;20111;-67